Time;durP1;ratioP1;P1;durP2;ratioP2;P2;SDS_P1;SDS_P2;PMS_P1;PMS_P2;Temp;Humidity;BMP_temperature;BMP_pressure;BME280_temperature;BME280_humidity;BME280_pressure;Samples;Min_cycle;Max_cycle;Signal;HPM_P1;HPM_P2
2022/05/13 00:00:35;;;;;;;6.30;3.13;;;;;;;;;;4987870;28;20200;-71
2022/05/13 00:03:01;;;;;;;4.67;3.30;;;;;;;;;;4987618;28;20236;-72
2022/05/13 00:05:27;;;;;;;6.33;3.10;;;;;;;;;;4986670;28;20395;-72
2022/05/13 00:07:53;;;;;;;5.90;3.10;;;;;;;;;;4994463;28;20193;-71
2022/05/13 00:10:19;;;;;;;5.83;2.97;;;;;;;;;;4981029;28;20675;-71
2022/05/13 00:12:45;;;;;;;5.37;2.93;;;;;;;;;;4971585;28;20194;-71
2022/05/13 00:15:21;;;;;;;5.67;2.80;;;;;;;;;;4987127;28;20179;-71
2022/05/13 00:17:47;;;;;;;6.43;3.57;;;;;;;;;;4982342;28;20193;-71
2022/05/13 00:20:13;;;;;;;4.93;2.60;;;;;;;;;;4982306;28;20185;-72
2022/05/13 00:22:46;;;;;;;5.93;2.60;;;;;;;;;;4980857;28;21676;-71
2022/05/13 00:25:12;;;;;;;5.47;2.50;;;;;;;;;;4990303;28;20205;-71
2022/05/13 00:27:38;;;;;;;5.43;2.73;;;;;;;;;;4986659;28;20200;-71
2022/05/13 00:30:06;;;;;;;3.30;2.73;;;;;;;;;;4994500;28;20214;-69
2022/05/13 00:32:32;;;;;;;5.73;2.70;;;;;;;;;;4988821;28;20205;-71
2022/05/13 00:34:58;;;;;;;5.13;2.57;;;;;;;;;;4987801;28;20194;-71
2022/05/13 00:37:24;;;;;;;9.90;2.90;;;;;;;;;;4971378;28;20553;-70
2022/05/13 00:39:50;;;;;;;5.60;2.83;;;;;;;;;;4990941;28;20193;-71
2022/05/13 00:42:17;;;;;;;3.57;2.20;;;;;;;;;;4990926;28;20257;-71
2022/05/13 00:44:43;;;;;;;6.27;2.60;;;;;;;;;;4988359;28;20182;-71
2022/05/13 00:47:10;;;;;;;6.03;2.40;;;;;;;;;;4985602;28;20209;-71
2022/05/13 00:49:38;;;;;;;5.57;2.53;;;;;;;;;;4994139;28;20225;-71
2022/05/13 00:52:04;;;;;;;3.73;2.20;;;;;;;;;;4974239;28;20194;-71
2022/05/13 00:54:30;;;;;;;5.37;2.70;;;;;;;;;;4981147;28;21480;-71
2022/05/13 00:56:56;;;;;;;7.03;2.63;;;;;;;;;;4991542;28;20184;-71
2022/05/13 00:59:23;;;;;;;5.27;2.43;;;;;;;;;;4977848;28;20225;-73
2022/05/13 01:01:49;;;;;;;7.07;2.20;;;;;;;;;;4985987;28;20615;-71
2022/05/13 01:04:16;;;;;;;5.30;2.67;;;;;;;;;;4987313;28;20769;-71
2022/05/13 01:06:49;;;;;;;6.90;2.53;;;;;;;;;;4989661;28;20182;-71
2022/05/13 01:09:15;;;;;;;6.83;2.10;;;;;;;;;;4986983;28;20221;-70
2022/05/13 01:11:41;;;;;;;4.57;2.23;;;;;;;;;;4984233;28;20192;-71
2022/05/13 01:14:15;;;;;;;7.33;2.23;;;;;;;;;;4985476;28;20602;-71
2022/05/13 01:19:25;;;;;;;9.80;2.63;;;;;;;;;;4976500;28;20200;-70
2022/05/13 01:21:51;;;;;;;6.10;2.33;;;;;;;;;;4986806;28;20198;-70
2022/05/13 01:24:19;;;;;;;6.87;2.27;;;;;;;;;;4982961;28;20179;-71
2022/05/13 01:26:45;;;;;;;10.57;2.67;;;;;;;;;;4988170;28;20174;-70
2022/05/13 01:29:10;;;;;;;6.47;2.40;;;;;;;;;;4988025;28;20216;-70
2022/05/13 01:31:37;;;;;;;6.77;2.50;;;;;;;;;;4988991;28;20216;-71
2022/05/13 01:34:05;;;;;;;4.73;2.03;;;;;;;;;;4994897;28;20190;-71
2022/05/13 01:36:31;;;;;;;7.63;2.70;;;;;;;;;;4978459;28;20193;-71
2022/05/13 01:38:58;;;;;;;5.13;2.60;;;;;;;;;;4990277;28;20666;-71
2022/05/13 01:41:24;;;;;;;4.43;2.00;;;;;;;;;;4996575;28;20170;-71
2022/05/13 01:43:50;;;;;;;6.57;2.20;;;;;;;;;;4984862;28;20200;-71
2022/05/13 01:46:16;;;;;;;5.70;2.20;;;;;;;;;;4973365;28;20186;-71
2022/05/13 01:48:42;;;;;;;4.63;2.10;;;;;;;;;;4992377;28;20252;-71
2022/05/13 01:51:08;;;;;;;6.33;2.90;;;;;;;;;;4991993;28;20185;-71
2022/05/13 01:53:34;;;;;;;5.40;2.50;;;;;;;;;;4988414;28;20194;-71
2022/05/13 01:56:00;;;;;;;5.70;2.40;;;;;;;;;;4991929;28;20336;-71
2022/05/13 01:58:26;;;;;;;11.00;2.23;;;;;;;;;;4990080;28;20368;-71
2022/05/13 02:00:52;;;;;;;8.40;2.60;;;;;;;;;;4983366;28;20199;-71
2022/05/13 02:06:03;;;;;;;3.07;2.10;;;;;;;;;;4987741;28;20201;-71
2022/05/13 02:08:29;;;;;;;6.60;2.77;;;;;;;;;;4988262;28;20293;-71
2022/05/13 02:10:55;;;;;;;5.23;2.10;;;;;;;;;;4988566;28;20348;-71
2022/05/13 02:13:21;;;;;;;4.73;2.00;;;;;;;;;;4992888;28;20186;-71
2022/05/13 02:15:47;;;;;;;5.00;2.10;;;;;;;;;;4988807;28;20190;-71
2022/05/13 02:18:13;;;;;;;5.13;2.50;;;;;;;;;;4993166;28;20192;-71
2022/05/13 02:20:40;;;;;;;5.10;2.70;;;;;;;;;;4989585;28;20239;-71
2022/05/13 02:23:06;;;;;;;6.07;2.20;;;;;;;;;;4991096;28;20280;-71
2022/05/13 02:25:31;;;;;;;4.90;2.03;;;;;;;;;;4989396;28;20825;-71
2022/05/13 02:27:58;;;;;;;5.17;2.40;;;;;;;;;;4990798;28;20261;-71
2022/05/13 02:30:24;;;;;;;3.57;2.10;;;;;;;;;;4984737;28;20241;-71
2022/05/13 02:32:50;;;;;;;5.13;1.90;;;;;;;;;;4988601;28;20190;-71
2022/05/13 02:35:16;;;;;;;7.10;2.30;;;;;;;;;;4992123;28;20187;-71
2022/05/13 02:37:42;;;;;;;3.83;1.73;;;;;;;;;;4990287;28;20221;-71
2022/05/13 02:40:08;;;;;;;5.30;2.13;;;;;;;;;;4984903;28;21038;-71
2022/05/13 02:42:34;;;;;;;6.00;2.47;;;;;;;;;;4989646;28;20273;-71
2022/05/13 02:45:00;;;;;;;5.90;2.53;;;;;;;;;;4988792;28;20612;-71
2022/05/13 02:47:26;;;;;;;8.13;2.37;;;;;;;;;;4981032;28;21137;-71
2022/05/13 02:50:17;;;;;;;3.93;2.20;;;;;;;;;;4989637;28;20221;-72
2022/05/13 02:52:38;;;;;;;4.47;2.10;;;;;;;;;;4987301;28;20205;-71
2022/05/13 02:55:04;;;;;;;7.93;2.07;;;;;;;;;;4987031;28;20208;-71
2022/05/13 02:57:30;;;;;;;3.80;1.90;;;;;;;;;;4986338;28;20635;-71
2022/05/13 02:59:56;;;;;;;6.57;2.30;;;;;;;;;;4987498;28;20209;-71
2022/05/13 03:02:22;;;;;;;5.43;2.20;;;;;;;;;;4988134;28;20186;-71
2022/05/13 03:04:48;;;;;;;3.83;1.77;;;;;;;;;;4987401;28;20241;-71
2022/05/13 03:07:14;;;;;;;5.97;2.20;;;;;;;;;;4993247;28;20197;-71
2022/05/13 03:09:40;;;;;;;4.87;2.30;;;;;;;;;;4986324;28;20202;-71
2022/05/13 03:12:06;;;;;;;7.17;2.20;;;;;;;;;;4988448;28;20185;-71
2022/05/13 03:14:32;;;;;;;4.73;2.17;;;;;;;;;;4982951;28;20195;-71
2022/05/13 03:16:58;;;;;;;4.53;2.23;;;;;;;;;;4990771;28;20199;-71
2022/05/13 03:19:24;;;;;;;4.40;1.97;;;;;;;;;;4987941;28;20201;-71
2022/05/13 03:21:50;;;;;;;10.10;2.10;;;;;;;;;;4970194;28;20197;-71
2022/05/13 03:24:16;;;;;;;2.90;1.80;;;;;;;;;;4979859;28;20197;-71
2022/05/13 03:26:42;;;;;;;5.73;2.23;;;;;;;;;;4990499;28;20835;-71
2022/05/13 03:29:08;;;;;;;6.00;2.27;;;;;;;;;;4988679;28;20708;-71
2022/05/13 03:31:36;;;;;;;6.30;1.93;;;;;;;;;;4987248;28;20198;-71
2022/05/13 03:34:02;;;;;;;4.47;1.70;;;;;;;;;;4995867;28;20187;-71
2022/05/13 03:36:28;;;;;;;4.80;1.87;;;;;;;;;;4992161;28;20591;-71
2022/05/13 03:38:54;;;;;;;3.97;1.90;;;;;;;;;;4985292;28;20190;-72
2022/05/13 03:41:20;;;;;;;4.03;1.80;;;;;;;;;;4984654;28;20192;-71
2022/05/13 03:43:46;;;;;;;5.90;2.00;;;;;;;;;;4991763;28;20189;-71
2022/05/13 03:46:11;;;;;;;6.07;1.80;;;;;;;;;;4989177;28;20188;-70
2022/05/13 03:48:37;;;;;;;4.53;1.93;;;;;;;;;;4989598;28;20742;-71
2022/05/13 03:51:03;;;;;;;4.03;1.80;;;;;;;;;;4987506;28;20244;-71
2022/05/13 03:53:29;;;;;;;4.20;2.47;;;;;;;;;;4990038;28;20197;-71
2022/05/13 03:55:55;;;;;;;3.23;1.70;;;;;;;;;;4978495;28;20631;-71
2022/05/13 03:58:21;;;;;;;4.77;1.80;;;;;;;;;;4988459;28;20186;-71
2022/05/13 04:00:47;;;;;;;3.97;1.93;;;;;;;;;;4979861;28;20190;-70
2022/05/13 04:03:13;;;;;;;6.27;1.83;;;;;;;;;;4989456;28;20217;-71
2022/05/13 04:11:08;;;;;;;6.60;2.07;;;;;;;;;;4986240;28;20228;-72
2022/05/13 04:16:19;;;;;;;4.63;1.93;;;;;;;;;;4975971;28;20579;-71
2022/05/13 04:18:45;;;;;;;5.07;2.10;;;;;;;;;;4979159;28;20186;-71
2022/05/13 04:21:12;;;;;;;3.60;1.83;;;;;;;;;;4985959;28;20185;-71
2022/05/13 04:23:40;;;;;;;5.60;2.20;;;;;;;;;;4980014;28;20285;-71
2022/05/13 04:26:06;;;;;;;6.00;1.90;;;;;;;;;;4979152;28;20194;-70
2022/05/13 04:28:32;;;;;;;3.17;1.63;;;;;;;;;;4987793;28;20185;-71
2022/05/13 04:31:00;;;;;;;6.87;1.90;;;;;;;;;;4980816;28;20674;-71
2022/05/13 04:33:26;;;;;;;6.33;2.00;;;;;;;;;;4989286;28;20236;-71
2022/05/13 04:35:52;;;;;;;3.30;1.90;;;;;;;;;;4989643;28;20730;-72
2022/05/13 04:38:18;;;;;;;5.20;2.07;;;;;;;;;;4979993;28;20290;-71
2022/05/13 04:40:44;;;;;;;6.60;2.03;;;;;;;;;;4975607;28;20837;-70
2022/05/13 04:43:10;;;;;;;5.00;2.07;;;;;;;;;;4976495;28;20823;-70
2022/05/13 04:45:36;;;;;;;4.53;2.40;;;;;;;;;;4979589;28;20367;-71
2022/05/13 04:48:16;;;;;;;5.33;2.33;;;;;;;;;;4979323;28;20193;-71
2022/05/13 04:50:52;;;;;;;10.87;2.50;;;;;;;;;;4982228;28;21260;-71
2022/05/13 04:53:19;;;;;;;7.73;2.60;;;;;;;;;;4976974;28;20197;-71
2022/05/13 04:55:45;;;;;;;7.07;2.00;;;;;;;;;;4963569;28;20197;-71
2022/05/13 04:58:11;;;;;;;5.67;2.43;;;;;;;;;;4957217;28;20184;-71
2022/05/13 05:00:37;;;;;;;9.77;2.83;;;;;;;;;;4975843;28;20193;-71
2022/05/13 05:03:03;;;;;;;6.90;2.13;;;;;;;;;;4973529;28;21743;-71
2022/05/13 05:05:29;;;;;;;4.97;2.53;;;;;;;;;;4981629;28;20401;-71
2022/05/13 05:07:55;;;;;;;6.13;2.27;;;;;;;;;;4979302;28;20197;-71
2022/05/13 05:10:21;;;;;;;5.07;2.20;;;;;;;;;;4980166;28;20218;-72
2022/05/13 05:12:49;;;;;;;6.53;2.50;;;;;;;;;;4970254;28;20186;-70
2022/05/13 05:15:15;;;;;;;6.20;3.43;;;;;;;;;;4986368;28;20185;-71
2022/05/13 05:17:42;;;;;;;7.17;3.00;;;;;;;;;;4994322;28;20205;-73
2022/05/13 05:20:08;;;;;;;6.00;2.60;;;;;;;;;;4978614;28;20205;-71
2022/05/13 05:22:34;;;;;;;6.70;2.67;;;;;;;;;;4973482;28;20243;-71
2022/05/13 05:25:00;;;;;;;7.10;2.30;;;;;;;;;;4985489;28;20631;-71
2022/05/13 05:27:26;;;;;;;8.20;2.53;;;;;;;;;;4963670;28;20296;-72
2022/05/13 05:29:52;;;;;;;6.40;2.47;;;;;;;;;;4986715;28;20565;-71
2022/05/13 05:32:18;;;;;;;7.10;2.53;;;;;;;;;;4975152;28;20193;-72
2022/05/13 05:34:44;;;;;;;8.03;2.50;;;;;;;;;;4979662;28;20194;-72
2022/05/13 05:37:10;;;;;;;4.00;2.37;;;;;;;;;;4995896;28;20186;-72
2022/05/13 05:39:36;;;;;;;6.53;2.57;;;;;;;;;;4990559;28;20205;-72
2022/05/13 05:42:02;;;;;;;4.97;2.27;;;;;;;;;;4993447;28;20217;-71
2022/05/13 05:44:28;;;;;;;7.10;2.77;;;;;;;;;;4998200;28;20547;-71
2022/05/13 05:46:54;;;;;;;5.63;2.20;;;;;;;;;;4980635;28;20736;-71
2022/05/13 05:49:20;;;;;;;7.87;2.60;;;;;;;;;;4996379;28;20300;-71
2022/05/13 05:51:46;;;;;;;6.20;2.57;;;;;;;;;;4998864;28;20721;-72
2022/05/13 05:57:14;;;;;;;6.80;2.33;;;;;;;;;;4997778;28;20825;-72
2022/05/13 05:59:41;;;;;;;8.57;2.20;;;;;;;;;;4997821;28;20213;-73
2022/05/13 06:02:07;;;;;;;5.17;2.40;;;;;;;;;;4995174;28;20237;-72
2022/05/13 06:04:33;;;;;;;7.57;2.40;;;;;;;;;;4995291;28;20234;-71
2022/05/13 06:06:59;;;;;;;7.47;2.77;;;;;;;;;;4996138;28;20194;-71
2022/05/13 06:09:25;;;;;;;4.67;2.37;;;;;;;;;;4996402;28;20290;-71
2022/05/13 06:11:51;;;;;;;5.93;2.77;;;;;;;;;;5000065;28;20205;-72
2022/05/13 06:14:17;;;;;;;5.20;2.30;;;;;;;;;;4995805;28;20276;-71
2022/05/13 06:16:43;;;;;;;5.90;2.20;;;;;;;;;;4991664;28;21161;-71
2022/05/13 06:19:09;;;;;;;6.53;2.17;;;;;;;;;;4983662;28;20272;-71
2022/05/13 06:21:37;;;;;;;5.80;2.00;;;;;;;;;;4994906;28;20192;-71
2022/05/13 06:24:03;;;;;;;8.00;2.67;;;;;;;;;;4993315;28;20181;-71
2022/05/13 06:26:29;;;;;;;7.77;2.47;;;;;;;;;;4993882;28;20219;-71
2022/05/13 06:28:55;;;;;;;4.37;2.33;;;;;;;;;;4991222;28;20182;-71
2022/05/13 06:31:21;;;;;;;5.67;2.60;;;;;;;;;;4978412;28;20186;-71
2022/05/13 06:33:47;;;;;;;5.73;2.17;;;;;;;;;;4995061;28;20248;-71
2022/05/13 06:36:13;;;;;;;8.97;2.30;;;;;;;;;;4995451;28;20194;-71
2022/05/13 06:38:39;;;;;;;5.27;2.40;;;;;;;;;;4992339;28;20640;-71
2022/05/13 06:41:05;;;;;;;7.13;2.30;;;;;;;;;;4989883;28;20638;-71
2022/05/13 06:43:31;;;;;;;8.47;2.20;;;;;;;;;;4990549;28;20186;-71
2022/05/13 06:45:57;;;;;;;6.20;2.40;;;;;;;;;;4989277;28;20197;-71
2022/05/13 06:48:23;;;;;;;3.37;2.40;;;;;;;;;;4990624;28;20198;-71
2022/05/13 06:50:49;;;;;;;4.90;2.03;;;;;;;;;;5005353;28;20647;-71
2022/05/13 06:53:16;;;;;;;7.70;2.50;;;;;;;;;;4988114;28;20178;-71
2022/05/13 06:55:44;;;;;;;6.37;2.17;;;;;;;;;;4998090;28;20182;-71
2022/05/13 06:58:10;;;;;;;6.43;2.50;;;;;;;;;;4989369;28;20182;-73
2022/05/13 07:00:35;;;;;;;6.67;1.67;;;;;;;;;;4987265;28;20197;-71
2022/05/13 07:03:01;;;;;;;5.30;1.80;;;;;;;;;;4992146;28;20312;-72
2022/05/13 07:05:28;;;;;;;4.88;1.65;;;;;;;;;;4991054;28;20293;-71
2022/05/13 07:07:54;;;;;;;5.37;2.40;;;;;;;;;;4988187;28;20198;-71
2022/05/13 07:10:20;;;;;;;6.60;2.00;;;;;;;;;;4996804;28;20228;-71
2022/05/13 07:12:46;;;;;;;9.17;2.20;;;;;;;;;;4974250;28;21156;-72
2022/05/13 07:15:13;;;;;;;6.97;2.00;;;;;;;;;;4992316;28;20177;-72
2022/05/13 07:17:39;;;;;;;6.43;2.33;;;;;;;;;;4988388;28;20189;-71
2022/05/13 07:20:05;;;;;;;4.85;1.88;;;;;;;;;;4982145;28;21078;-72
2022/05/13 07:22:32;;;;;;;4.82;2.05;;;;;;;;;;4977879;28;20300;-71
2022/05/13 07:24:58;;;;;;;5.90;2.47;;;;;;;;;;4975856;28;20224;-72
2022/05/13 07:27:24;;;;;;;5.65;2.03;;;;;;;;;;4990399;28;20273;-71
2022/05/13 07:29:50;;;;;;;6.60;2.15;;;;;;;;;;4991885;28;20224;-71
2022/05/13 07:32:16;;;;;;;5.18;1.98;;;;;;;;;;4987245;28;20201;-72
2022/05/13 07:34:42;;;;;;;7.38;1.83;;;;;;;;;;4998323;28;20205;-71
2022/05/13 07:37:07;;;;;;;5.38;2.05;;;;;;;;;;4994255;28;20301;-71
2022/05/13 07:42:18;;;;;;;5.32;1.85;;;;;;;;;;4988765;28;20621;-72
2022/05/13 07:44:44;;;;;;;5.43;1.88;;;;;;;;;;4989449;28;20726;-71
2022/05/13 07:47:11;;;;;;;4.00;1.65;;;;;;;;;;4985966;28;20261;-72
2022/05/13 07:49:37;;;;;;;4.70;1.92;;;;;;;;;;4988414;28;20585;-72
2022/05/13 07:52:03;;;;;;;5.63;1.80;;;;;;;;;;4990268;28;20308;-72
2022/05/13 07:54:29;;;;;;;5.80;2.50;;;;;;;;;;4991895;28;20553;-72
2022/05/13 07:56:55;;;;;;;5.10;2.28;;;;;;;;;;4988502;28;20182;-71
2022/05/13 07:59:21;;;;;;;5.97;2.17;;;;;;;;;;4991047;28;20186;-71
2022/05/13 08:01:47;;;;;;;5.82;1.90;;;;;;;;;;4989193;28;20209;-71
2022/05/13 08:04:13;;;;;;;2.97;1.90;;;;;;;;;;4980428;28;20272;-71
2022/05/13 08:06:40;;;;;;;5.97;2.40;;;;;;;;;;4991060;28;20182;-71
2022/05/13 08:09:06;;;;;;;5.15;2.10;;;;;;;;;;4989440;28;20217;-72
2022/05/13 08:11:31;;;;;;;6.93;2.53;;;;;;;;;;4989776;28;20268;-72
2022/05/13 08:13:57;;;;;;;4.70;2.15;;;;;;;;;;4994335;28;20197;-72
2022/05/13 08:16:26;;;;;;;3.50;2.03;;;;;;;;;;4981362;28;20192;-72
2022/05/13 08:18:55;;;;;;;4.13;1.80;;;;;;;;;;4992373;28;21460;-72
2022/05/13 08:21:21;;;;;;;7.55;2.42;;;;;;;;;;4989277;28;20198;-71
2022/05/13 08:23:47;;;;;;;4.13;2.00;;;;;;;;;;4989863;28;20695;-71
2022/05/13 08:26:13;;;;;;;6.50;2.15;;;;;;;;;;4978464;28;20205;-71
2022/05/13 08:28:39;;;;;;;3.97;1.70;;;;;;;;;;4992668;28;20213;-71
2022/05/13 08:31:06;;;;;;;4.25;1.75;;;;;;;;;;4983286;28;20248;-71
2022/05/13 08:33:32;;;;;;;5.82;1.95;;;;;;;;;;4984623;28;20185;-71
2022/05/13 08:35:58;;;;;;;5.50;1.55;;;;;;;;;;4993249;28;21007;-72
2022/05/13 08:38:25;;;;;;;6.45;2.15;;;;;;;;;;4997922;28;20195;-71
2022/05/13 08:40:52;;;;;;;3.65;1.58;;;;;;;;;;4990465;28;23071;-71
2022/05/13 08:43:24;;;;;;;3.85;1.92;;;;;;;;;;4991351;28;20232;-72
2022/05/13 08:45:52;;;;;;;4.25;1.75;;;;;;;;;;4986888;28;20190;-71
2022/05/13 08:48:20;;;;;;;5.43;2.03;;;;;;;;;;4940482;28;20930;-71
2022/05/13 08:50:49;;;;;;;5.82;1.98;;;;;;;;;;4967699;28;20214;-71
2022/05/13 08:53:28;;;;;;;8.88;2.20;;;;;;;;;;4985942;28;20200;-72
2022/05/13 08:56:00;;;;;;;3.63;1.90;;;;;;;;;;4982377;28;20180;-71
2022/05/13 08:58:27;;;;;;;5.95;1.83;;;;;;;;;;4993256;28;20192;-71
2022/05/13 09:00:56;;;;;;;3.58;1.67;;;;;;;;;;4981224;28;20324;-71
2022/05/13 09:03:25;;;;;;;6.50;2.03;;;;;;;;;;4985011;28;20245;-71
2022/05/13 09:06:08;;;;;;;4.80;1.90;;;;;;;;;;4990672;28;20185;-71
2022/05/13 09:08:34;;;;;;;4.15;2.00;;;;;;;;;;4994273;28;20186;-71
2022/05/13 09:11:08;;;;;;;7.05;1.95;;;;;;;;;;4990510;28;20239;-72
2022/05/13 09:13:36;;;;;;;8.75;1.92;;;;;;;;;;4991001;28;20563;-72
2022/05/13 09:16:02;;;;;;;7.13;2.40;;;;;;;;;;4988092;28;20201;-73
2022/05/13 09:18:57;;;;;;;4.43;2.08;;;;;;;;;;4977538;28;20218;-71
2022/05/13 09:21:23;;;;;;;3.55;1.90;;;;;;;;;;4984684;28;20675;-71
2022/05/13 09:23:49;;;;;;;3.13;1.90;;;;;;;;;;4992974;28;20178;-72
2022/05/13 09:26:19;;;;;;;6.10;1.65;;;;;;;;;;4994860;28;20249;-72
2022/05/13 09:28:58;;;;;;;4.55;2.00;;;;;;;;;;4992432;28;20213;-72
2022/05/13 09:31:25;;;;;;;3.67;1.50;;;;;;;;;;4982365;28;20284;-71
2022/05/13 09:33:51;;;;;;;3.33;1.67;;;;;;;;;;4990546;28;20563;-72
2022/05/13 09:36:16;;;;;;;5.68;2.08;;;;;;;;;;4986281;28;20174;-73
2022/05/13 09:38:46;;;;;;;3.33;1.63;;;;;;;;;;4994549;28;20240;-72
2022/05/13 09:41:13;;;;;;;3.90;1.88;;;;;;;;;;4988927;28;20194;-72
2022/05/13 09:43:51;;;;;;;3.83;1.70;;;;;;;;;;4992189;28;20609;-72
2022/05/13 09:46:24;;;;;;;4.88;2.15;;;;;;;;;;4987498;28;20283;-72
2022/05/13 09:48:54;;;;;;;5.82;1.90;;;;;;;;;;4994226;28;20188;-72
2022/05/13 09:51:25;;;;;;;3.75;1.90;;;;;;;;;;4990848;28;20292;-72
2022/05/13 09:54:09;;;;;;;3.60;1.90;;;;;;;;;;4985141;28;20538;-72
2022/05/13 09:56:36;;;;;;;3.38;1.83;;;;;;;;;;4987950;28;20201;-72
2022/05/13 09:59:04;;;;;;;5.78;1.98;;;;;;;;;;4984183;28;20192;-71
2022/05/13 10:01:30;;;;;;;4.38;1.60;;;;;;;;;;4986847;28;20215;-72
2022/05/13 10:04:08;;;;;;;4.20;1.92;;;;;;;;;;4995521;28;20246;-72
2022/05/13 10:06:35;;;;;;;3.10;1.60;;;;;;;;;;5002503;28;20543;-72
2022/05/13 10:14:32;;;;;;;4.95;1.75;;;;;;;;;;4986243;28;20324;-72
2022/05/13 10:17:18;;;;;;;2.80;1.40;;;;;;;;;;4993770;28;20194;-72
2022/05/13 10:19:45;;;;;;;3.25;1.40;;;;;;;;;;4993686;28;20224;-72
2022/05/13 10:22:18;;;;;;;3.83;1.30;;;;;;;;;;4992395;28;20189;-72
2022/05/13 10:24:53;;;;;;;3.13;1.30;;;;;;;;;;4986512;28;20244;-72
2022/05/13 10:27:27;;;;;;;3.65;1.70;;;;;;;;;;4988183;28;20189;-72
2022/05/13 10:29:54;;;;;;;3.53;1.70;;;;;;;;;;4992842;28;20206;-72
2022/05/13 10:32:24;;;;;;;5.25;1.73;;;;;;;;;;4992813;28;20182;-72
2022/05/13 10:34:53;;;;;;;2.08;1.40;;;;;;;;;;4991259;28;20180;-72
2022/05/13 10:37:37;;;;;;;4.07;1.50;;;;;;;;;;4984873;28;20272;-72
2022/05/13 10:40:05;;;;;;;2.42;1.40;;;;;;;;;;4979007;28;20216;-72
2022/05/13 10:42:33;;;;;;;1.55;1.30;;;;;;;;;;4989614;28;20181;-72
2022/05/13 10:44:59;;;;;;;2.67;1.40;;;;;;;;;;4993649;28;20212;-72
2022/05/13 10:47:28;;;;;;;2.38;1.40;;;;;;;;;;4983265;28;20252;-72
2022/05/13 10:49:54;;;;;;;3.35;1.50;;;;;;;;;;4991883;28;20213;-72
2022/05/13 10:52:23;;;;;;;4.32;1.58;;;;;;;;;;4984246;28;20241;-72
2022/05/13 10:54:50;;;;;;;3.22;1.52;;;;;;;;;;4994750;28;20217;-72
2022/05/13 10:57:16;;;;;;;4.07;1.58;;;;;;;;;;4974791;28;20182;-72
2022/05/13 10:59:46;;;;;;;3.75;1.50;;;;;;;;;;4964733;28;20252;-72
2022/05/13 11:02:12;;;;;;;4.88;1.70;;;;;;;;;;4984452;28;20182;-73
2022/05/13 11:04:38;;;;;;;3.03;1.63;;;;;;;;;;4974131;28;20256;-73
2022/05/13 11:07:23;;;;;;;2.67;1.73;;;;;;;;;;4977897;28;20186;-72
2022/05/13 11:09:53;;;;;;;7.78;1.40;;;;;;;;;;4989894;28;20220;-72
2022/05/13 11:12:41;;;;;;;2.67;1.58;;;;;;;;;;4983563;28;20188;-73
2022/05/13 11:15:22;;;;;;;5.88;1.80;;;;;;;;;;4981057;28;20285;-73
2022/05/13 11:18:00;;;;;;;4.03;1.77;;;;;;;;;;4978603;28;20190;-72
2022/05/13 11:20:45;;;;;;;4.47;1.60;;;;;;;;;;4962643;28;20781;-72
2022/05/13 11:23:38;;;;;;;4.25;1.67;;;;;;;;;;4992454;28;20255;-72
2022/05/13 11:26:21;;;;;;;4.45;1.80;;;;;;;;;;4985407;28;21687;-72
2022/05/13 11:28:51;;;;;;;5.35;1.60;;;;;;;;;;4989349;28;20277;-71
2022/05/13 11:31:17;;;;;;;2.88;1.58;;;;;;;;;;4982269;28;20337;-72
2022/05/13 11:33:57;;;;;;;3.15;1.77;;;;;;;;;;4989063;28;20191;-73
2022/05/13 11:36:25;;;;;;;4.25;1.70;;;;;;;;;;4968767;28;20710;-72
2022/05/13 11:38:56;;;;;;;3.75;1.58;;;;;;;;;;4985716;28;20545;-71
2022/05/13 11:41:23;;;;;;;3.03;1.60;;;;;;;;;;4990967;28;20216;-71
2022/05/13 11:43:54;;;;;;;2.90;1.50;;;;;;;;;;4990931;28;20201;-71
2022/05/13 11:46:39;;;;;;;4.80;1.65;;;;;;;;;;4984050;28;21204;-71
2022/05/13 11:49:14;;;;;;;2.97;1.52;;;;;;;;;;4984565;28;20194;-71
2022/05/13 11:51:40;;;;;;;2.80;1.85;;;;;;;;;;4989849;28;20190;-71
2022/05/13 11:54:15;;;;;;;4.25;1.63;;;;;;;;;;4984969;28;20561;-72
2022/05/13 11:56:43;;;;;;;4.38;1.83;;;;;;;;;;4984924;28;20186;-71
2022/05/13 11:59:11;;;;;;;4.93;1.95;;;;;;;;;;4983805;28;20775;-72
2022/05/13 12:01:37;;;;;;;2.90;1.83;;;;;;;;;;4985165;28;20214;-72
2022/05/13 12:04:12;;;;;;;3.67;1.85;;;;;;;;;;4976955;28;20357;-71
2022/05/13 12:06:50;;;;;;;5.63;1.80;;;;;;;;;;4985434;28;20758;-71
2022/05/13 12:09:25;;;;;;;9.00;1.80;;;;;;;;;;4987178;28;20202;-72
2022/05/13 12:12:00;;;;;;;4.93;1.63;;;;;;;;;;4989475;28;20193;-71
2022/05/13 12:14:41;;;;;;;4.00;1.85;;;;;;;;;;4985245;28;20573;-72
2022/05/13 12:17:19;;;;;;;5.15;1.83;;;;;;;;;;4988155;28;20541;-71
2022/05/13 12:19:58;;;;;;;5.15;1.70;;;;;;;;;;4981882;28;20182;-71
2022/05/13 12:22:30;;;;;;;6.63;1.90;;;;;;;;;;4984214;28;20189;-71
2022/05/13 12:25:02;;;;;;;3.25;1.70;;;;;;;;;;4987656;28;20320;-71
2022/05/13 12:27:29;;;;;;;3.93;1.70;;;;;;;;;;4989007;28;20193;-72
2022/05/13 12:30:00;;;;;;;5.33;1.60;;;;;;;;;;4987014;28;20609;-72
2022/05/13 12:32:36;;;;;;;5.72;1.88;;;;;;;;;;4988142;28;20213;-71
2022/05/13 12:37:47;;;;;;;4.63;2.10;;;;;;;;;;4964072;28;20201;-72
2022/05/13 12:40:22;;;;;;;6.65;2.10;;;;;;;;;;4976746;28;20192;-72
2022/05/13 12:42:51;;;;;;;3.05;1.70;;;;;;;;;;4987607;28;20193;-72
2022/05/13 12:45:36;;;;;;;7.55;1.70;;;;;;;;;;4986257;28;20208;-72
2022/05/13 12:48:04;;;;;;;5.03;1.80;;;;;;;;;;4987039;28;20259;-70
2022/05/13 12:50:38;;;;;;;7.25;2.20;;;;;;;;;;4980211;28;20202;-72
2022/05/13 12:53:23;;;;;;;2.72;1.65;;;;;;;;;;4989314;28;20208;-70
2022/05/13 12:55:49;;;;;;;3.47;1.60;;;;;;;;;;4988322;28;20248;-72
2022/05/13 12:58:15;;;;;;;5.57;1.80;;;;;;;;;;4985290;28;20201;-72
2022/05/13 13:00:42;;;;;;;5.03;2.10;;;;;;;;;;4973891;28;20288;-72
2022/05/13 13:03:09;;;;;;;4.57;1.70;;;;;;;;;;4984708;28;20219;-71
2022/05/13 13:05:36;;;;;;;8.45;1.65;;;;;;;;;;4978176;28;20190;-71
2022/05/13 13:08:04;;;;;;;3.25;1.70;;;;;;;;;;4984785;28;20573;-72
2022/05/13 13:10:30;;;;;;;3.92;1.52;;;;;;;;;;4977444;28;20236;-71
2022/05/13 13:13:04;;;;;;;2.70;1.67;;;;;;;;;;4984322;28;20178;-72
2022/05/13 13:15:31;;;;;;;1.90;1.30;;;;;;;;;;4977343;28;20190;-72
2022/05/13 13:17:58;;;;;;;6.15;1.80;;;;;;;;;;4967509;28;20196;-70
2022/05/13 13:20:25;;;;;;;3.30;1.27;;;;;;;;;;4975572;28;20288;-71
2022/05/13 13:22:55;;;;;;;3.55;1.52;;;;;;;;;;4969213;28;20878;-71
2022/05/13 13:25:21;;;;;;;7.15;1.67;;;;;;;;;;4990407;28;20189;-71
2022/05/13 13:27:47;;;;;;;5.03;1.42;;;;;;;;;;4987077;28;20287;-71
2022/05/13 13:30:17;;;;;;;3.38;1.50;;;;;;;;;;4993649;28;21156;-71
2022/05/13 13:32:47;;;;;;;8.05;1.40;;;;;;;;;;4978383;28;20178;-72
2022/05/13 13:35:13;;;;;;;4.05;1.73;;;;;;;;;;4970936;28;20201;-69
2022/05/13 13:37:39;;;;;;;4.03;1.75;;;;;;;;;;4987227;28;20982;-70
2022/05/13 13:40:16;;;;;;;4.10;1.63;;;;;;;;;;4989243;28;20183;-70
2022/05/13 13:42:42;;;;;;;9.63;1.75;;;;;;;;;;4985358;28;20636;-70
2022/05/13 13:45:19;;;;;;;6.25;1.73;;;;;;;;;;4985598;28;20197;-70
2022/05/13 13:47:46;;;;;;;6.38;1.73;;;;;;;;;;4991745;28;20188;-72
2022/05/13 13:50:26;;;;;;;5.63;1.73;;;;;;;;;;4989446;28;21840;-71
2022/05/13 13:52:52;;;;;;;8.25;2.00;;;;;;;;;;4993019;28;20867;-71
2022/05/13 13:55:39;;;;;;;4.85;1.80;;;;;;;;;;4994946;28;20294;-71
2022/05/13 13:58:17;;;;;;;5.13;1.85;;;;;;;;;;4985087;28;20244;-70
2022/05/13 14:00:45;;;;;;;5.38;1.70;;;;;;;;;;4981565;28;20242;-70
2022/05/13 14:03:12;;;;;;;2.53;1.63;;;;;;;;;;4988472;28;20213;-72
2022/05/13 14:06:04;;;;;;;4.45;1.42;;;;;;;;;;4985455;28;20197;-70
2022/05/13 14:08:31;;;;;;;2.45;1.67;;;;;;;;;;4990906;28;20233;-70
2022/05/13 14:11:01;;;;;;;4.55;1.60;;;;;;;;;;4989988;28;20218;-70
2022/05/13 14:13:31;;;;;;;7.18;1.92;;;;;;;;;;4972878;28;20185;-73
2022/05/13 14:16:02;;;;;;;6.63;1.88;;;;;;;;;;4987098;28;20193;-72
2022/05/13 14:18:28;;;;;;;4.43;1.98;;;;;;;;;;4992033;28;20186;-71
2022/05/13 14:20:55;;;;;;;6.32;1.83;;;;;;;;;;4994981;28;20196;-72
2022/05/13 14:23:21;;;;;;;6.00;1.77;;;;;;;;;;4996154;28;20190;-72
2022/05/13 14:25:52;;;;;;;7.68;1.80;;;;;;;;;;4992146;28;20732;-71
2022/05/13 14:28:18;;;;;;;5.18;2.00;;;;;;;;;;4995379;28;20398;-71
2022/05/13 14:30:58;;;;;;;3.17;1.60;;;;;;;;;;4992914;28;20252;-71
2022/05/13 14:33:30;;;;;;;7.15;1.90;;;;;;;;;;4990569;28;20598;-71
2022/05/13 14:36:02;;;;;;;4.97;1.63;;;;;;;;;;4996548;28;20195;-71
2022/05/13 14:41:29;;;;;;;5.55;1.98;;;;;;;;;;4994522;28;20244;-71
2022/05/13 14:43:56;;;;;;;3.45;1.63;;;;;;;;;;4992602;28;20192;-72
2022/05/13 14:46:24;;;;;;;2.42;1.42;;;;;;;;;;4990121;28;20665;-71
2022/05/13 14:48:50;;;;;;;4.03;1.70;;;;;;;;;;4993529;28;21332;-71
2022/05/13 14:51:18;;;;;;;4.70;2.35;;;;;;;;;;4989483;28;20206;-71
2022/05/13 14:54:04;;;;;;;4.35;1.67;;;;;;;;;;4994203;28;20192;-71
2022/05/13 14:56:47;;;;;;;3.60;1.77;;;;;;;;;;4996029;28;20194;-72
2022/05/13 14:59:16;;;;;;;4.47;1.70;;;;;;;;;;4991207;28;20263;-72
2022/05/13 15:01:43;;;;;;;2.08;1.40;;;;;;;;;;4993943;28;20186;-72
2022/05/13 15:04:27;;;;;;;6.65;1.70;;;;;;;;;;4981627;28;20241;-71
2022/05/13 15:06:54;;;;;;;2.88;1.35;;;;;;;;;;4984248;28;20577;-73
2022/05/13 15:09:25;;;;;;;5.20;1.80;;;;;;;;;;4991454;28;20182;-72
2022/05/13 15:12:09;;;;;;;4.22;1.85;;;;;;;;;;4994392;28;20177;-72
2022/05/13 15:14:36;;;;;;;3.38;1.60;;;;;;;;;;4995412;28;20269;-72
2022/05/13 15:17:02;;;;;;;4.93;1.80;;;;;;;;;;4994087;28;20260;-72
2022/05/13 15:19:29;;;;;;;4.40;1.90;;;;;;;;;;4989820;28;20209;-72
2022/05/13 15:21:59;;;;;;;9.48;2.17;;;;;;;;;;4989437;28;20182;-72